createdAt,value
2023-03-23T15:58:12.479Z,13.54
2023-03-23T16:00:40.612Z,13.45
2023-03-23T16:03:12.418Z,13.39
2023-03-23T16:05:39.426Z,13.37
2023-03-23T16:08:06.517Z,13.37
2023-03-23T16:10:33.087Z,13.40
2023-03-23T16:12:59.729Z,13.59
2023-03-23T16:15:26.596Z,13.76
2023-03-23T16:17:53.084Z,13.95
2023-03-23T16:20:22.790Z,14.29
2023-03-23T16:22:50.870Z,14.37
2023-03-23T16:25:18.787Z,14.47
2023-03-23T16:27:51.772Z,14.58
2023-03-23T16:30:23.150Z,15.10
2023-03-23T16:32:49.934Z,15.21
2023-03-23T16:35:18.814Z,15.83
2023-03-23T16:37:47.472Z,16.39
2023-03-23T16:40:16.867Z,16.92
2023-03-23T16:42:43.520Z,17.28
2023-03-23T16:45:10.589Z,17.59
2023-03-23T16:47:37.476Z,17.69
2023-03-23T16:50:06.782Z,17.10
2023-03-23T16:52:34.458Z,17.48
2023-03-23T16:55:14.254Z,17.82
2023-03-23T16:57:42.189Z,18.14
2023-03-23T17:00:15.473Z,18.41
2023-03-23T17:02:43.676Z,18.06
2023-03-23T17:05:11.353Z,17.55
2023-03-23T17:07:39.319Z,17.17
2023-03-23T17:10:07.320Z,16.84
2023-03-23T17:12:34.350Z,16.48
2023-03-23T17:15:01.484Z,16.15
2023-03-23T17:17:28.373Z,15.93
2023-03-23T17:19:55.065Z,15.71
2023-03-23T17:22:21.579Z,15.53
2023-03-23T17:24:48.180Z,15.35
2023-03-23T17:27:17.709Z,15.19
2023-03-23T17:29:44.925Z,15.01
2023-03-23T17:32:11.958Z,14.88
2023-03-23T17:34:38.797Z,14.79
2023-03-23T17:37:06.781Z,14.76
2023-03-23T17:39:33.683Z,14.71
2023-03-23T17:42:10.428Z,14.63
2023-03-23T17:44:40.130Z,14.54
2023-03-23T17:47:06.657Z,14.52
2023-03-23T17:49:33.371Z,14.49
2023-03-23T17:52:00.001Z,14.42
2023-03-23T17:54:27.250Z,14.34
2023-03-23T17:56:53.966Z,14.29
2023-03-23T17:59:21.872Z,14.24
2023-03-23T18:01:49.010Z,14.15
2023-03-23T18:04:16.859Z,14.05
2023-03-23T18:06:43.485Z,14.00
2023-03-23T18:09:10.906Z,13.91
2023-03-23T18:11:37.814Z,13.80
2023-03-23T18:14:04.777Z,13.69
2023-03-23T18:16:31.518Z,13.62
2023-03-23T18:18:58.532Z,13.49
2023-03-23T18:21:26.998Z,13.36
2023-03-23T18:23:59.180Z,13.26
2023-03-23T18:26:27.183Z,13.17
2023-03-23T18:28:53.882Z,13.09
2023-03-23T18:31:21.622Z,13.01
2023-03-23T18:33:50.681Z,12.95
2023-03-23T18:36:23.086Z,12.91
2023-03-23T18:38:50.753Z,12.92
2023-03-23T18:41:18.639Z,12.95
2023-03-23T18:43:45.283Z,12.96
2023-03-23T18:46:11.801Z,12.99
2023-03-23T18:48:38.400Z,13.00
2023-03-23T18:51:05.806Z,13.04
2023-03-23T18:53:32.679Z,13.08
2023-03-23T18:56:07.071Z,13.09
2023-03-23T18:58:36.016Z,13.09
2023-03-23T19:01:07.217Z,13.08
2023-03-23T19:03:35.369Z,13.07
2023-03-23T19:06:03.131Z,13.09
2023-03-23T19:08:30.329Z,13.14
2023-03-23T19:11:01.002Z,13.18
2023-03-23T19:13:29.933Z,13.20
2023-03-23T19:15:56.958Z,13.24
2023-03-23T19:18:23.807Z,13.29
2023-03-23T19:23:23.465Z,13.39
2023-03-23T19:25:53.592Z,13.43
2023-03-23T19:29:05.589Z,13.47
2023-03-23T19:31:07.318Z,13.49
2023-03-23T19:33:34.841Z,13.52
2023-03-23T19:36:11.068Z,13.52
2023-03-23T19:38:39.509Z,13.52
2023-03-23T19:41:06.562Z,13.51
2023-03-23T19:43:33.739Z,13.47
2023-03-23T19:46:00.702Z,13.39
2023-03-23T19:48:27.538Z,13.35
2023-03-23T19:50:55.819Z,13.33
2023-03-23T19:53:26.708Z,13.28
2023-03-23T19:55:53.573Z,13.16
2023-03-23T19:58:20.948Z,13.05
2023-03-23T20:00:48.639Z,12.92
2023-03-23T20:03:16.034Z,12.79
2023-03-23T20:05:43.038Z,12.68
2023-03-23T20:08:10.541Z,12.59
2023-03-23T20:10:38.638Z,12.49
2023-03-23T20:13:06.831Z,12.44
2023-03-23T20:15:34.355Z,12.39
2023-03-23T20:18:01.213Z,12.38
2023-03-23T20:20:28.127Z,12.42
2023-03-23T20:22:57.326Z,12.47
2023-03-23T20:25:26.144Z,12.52
2023-03-23T20:27:54.963Z,12.59
2023-03-23T20:30:22.151Z,12.62
2023-03-23T20:32:49.092Z,12.66
2023-03-23T20:35:16.398Z,12.66
2023-03-23T20:37:43.387Z,12.70
2023-03-23T20:40:14.019Z,12.71
2023-03-23T20:42:43.881Z,12.72
2023-03-23T20:45:12.981Z,12.71
2023-03-23T20:47:40.783Z,12.69
2023-03-23T20:50:09.361Z,12.67
2023-03-23T20:52:37.327Z,12.65
2023-03-23T20:55:04.616Z,12.62
2023-03-23T20:57:31.168Z,12.57
2023-03-23T20:59:57.844Z,12.49
2023-03-23T21:02:26.098Z,12.39
2023-03-23T21:04:53.057Z,12.32
2023-03-23T21:07:23.168Z,12.25
2023-03-23T21:09:50.678Z,12.17
2023-03-23T21:12:17.250Z,12.10
2023-03-23T21:14:45.053Z,12.03
2023-03-23T21:17:12.598Z,11.98
2023-03-23T21:19:39.429Z,11.91
2023-03-23T21:22:05.856Z,11.83
2023-03-23T21:24:33.087Z,11.78
2023-03-23T21:27:03.480Z,11.71
2023-03-23T21:29:30.937Z,11.66
2023-03-23T21:34:28.838Z,11.56
2023-03-23T21:36:58.359Z,11.49
2023-03-23T21:39:26.236Z,11.47
2023-03-23T21:41:52.962Z,11.42
2023-03-23T21:44:19.670Z,11.39
2023-03-23T21:46:46.568Z,11.35
2023-03-23T21:49:16.258Z,11.32
2023-03-23T21:51:43.455Z,11.29
2023-03-23T21:54:11.644Z,11.26
2023-03-23T21:56:38.386Z,11.23
2023-03-23T21:59:07.462Z,11.21
2023-03-23T22:01:36.785Z,11.20
2023-03-23T22:04:04.053Z,11.18
2023-03-23T22:06:31.465Z,11.15
2023-03-23T22:08:58.088Z,11.13
2023-03-23T22:11:26.957Z,11.12
2023-03-23T22:13:55.001Z,11.11
2023-03-23T22:16:21.877Z,11.11
2023-03-23T22:18:50.146Z,11.11
2023-03-23T22:21:18.232Z,11.09
2023-03-23T22:23:46.180Z,11.09
2023-03-23T22:26:14.064Z,11.08
2023-03-23T22:28:41.084Z,11.05
2023-03-23T22:31:13.135Z,11.03
2023-03-23T22:33:40.159Z,11.02
2023-03-23T22:36:07.289Z,11.00
2023-03-23T22:38:35.717Z,11.01
2023-03-23T22:41:06.917Z,11.02
2023-03-23T22:43:37.715Z,11.07
2023-03-23T22:46:05.707Z,11.09
2023-03-23T22:48:32.662Z,11.12
2023-03-23T22:50:59.582Z,11.14
2023-03-23T22:53:26.541Z,11.18
2023-03-23T22:55:56.051Z,11.20
2023-03-23T22:58:24.473Z,11.23
2023-03-23T23:01:02.504Z,11.26
2023-03-23T23:03:30.394Z,11.31
2023-03-23T23:05:58.510Z,11.37
2023-03-23T23:08:26.432Z,11.43
2023-03-23T23:10:54.549Z,11.50
2023-03-23T23:13:21.541Z,11.56
2023-03-23T23:15:51.186Z,11.60
2023-03-23T23:18:18.530Z,11.66
2023-03-23T23:20:48.766Z,11.71
2023-03-23T23:23:15.402Z,11.77
2023-03-23T23:25:41.914Z,11.82
2023-03-23T23:28:08.388Z,11.86
2023-03-23T23:30:35.040Z,11.90
2023-03-23T23:33:01.850Z,11.95
2023-03-23T23:35:28.959Z,11.98
2023-03-23T23:37:55.605Z,12.02
2023-03-23T23:40:22.213Z,12.06
2023-03-23T23:42:50.521Z,12.09
2023-03-23T23:45:18.129Z,12.13
2023-03-23T23:47:45.934Z,12.17
2023-03-23T23:50:13.793Z,12.20
2023-03-23T23:52:42.511Z,12.22
2023-03-23T23:55:10.537Z,12.25
2023-03-23T23:57:37.566Z,12.26
